Disclaimer

Please do not use the information listed here in-flight or in-navigation, as they are not provided to us by the airports but are provided by volunteers, so they might be outdated.

Search


Regions


Airport information page

Radio informations:
RDO - 119.4 MHz
REYKJAVIK ACC - 119.7 MHz

Airport informations:
Latitude: 65° 17' 00.00" N
Longitude: 014° 24' 05.00" W
Elevation: 76 feet - 23 meters
Operating hours: 24 hour operations
Operating agency: Civil government, landing fees and diplomatic clearance may be required
Timezone: UTC 0
Fuel: Jet A1, without icing nhibitor.

100/130 MIL Spec, low lead, aviation gasoline (BLUE)

Runway information:
04/22 - 6562 x 148 feet< - >2000 x 45 meters

Recent METARs:
BIEG 202200Z 22006KT CAVOK 04/02 Q1032 R04/290195
BIEG 202200Z 22006KT CAVOK 04/02 Q1032 R04/290195
BIEG 202300Z VRB03KT CAVOK 03/00 Q1032 R04/290195

Airport on the map: